Anguilla, Mississippi
Current Conditions -  °F | °C
As of 6:53 AM on Saturday 22 Nov 2014 (Local Time) from KGLH Reporting Station
Broken Clouds Broken Clouds  
Wind Chill: 54°   Ceiling: 6500
Heat Index: 54°   Visibility: 8mi
Dew Point: 47°   Wind: 9mph
Humidity: 77%   Direction: 140°SE
Pressure: 30.24"   Gusts: NA
Location:  32.97°N, 90.82°W
Report Text: KGLH 221253Z AUTO 14008KT 8SM BKN065 BKN100 12/08 A3024 RMK AO2 SLP248 T01220083
Loading
Personal Weather Stations






























Interactive Weather Map New forecast layout! Learn more

10-Day Weather Forecast

Advertisements
Track Severe Weather on mobile